createdAt,value
2023-03-10T00:02:12.253Z,97.35
2023-03-10T00:04:41.575Z,97.37
2023-03-10T00:07:11.018Z,97.05
2023-03-10T00:09:40.277Z,96.92
2023-03-10T00:12:13.370Z,97.38
2023-03-10T00:14:42.741Z,97.66
2023-03-10T00:17:12.252Z,96.73
2023-03-10T00:19:41.547Z,97.48
2023-03-10T00:22:10.799Z,97.25
2023-03-10T00:24:40.099Z,97.11
2023-03-10T00:27:09.458Z,98.12
2023-03-10T00:29:41.334Z,97.94
2023-03-10T00:32:10.777Z,98.00
2023-03-10T00:34:40.060Z,96.99
2023-03-10T00:37:09.426Z,96.95
2023-03-10T00:39:38.912Z,97.30
2023-03-10T00:42:08.530Z,97.20
2023-03-10T00:44:38.008Z,97.27
2023-03-10T00:47:10.011Z,97.52
2023-03-10T00:49:39.274Z,97.69
2023-03-10T00:52:09.022Z,98.32
2023-03-10T00:54:42.449Z,98.35
2023-03-10T00:57:12.062Z,97.81
2023-03-10T00:59:49.906Z,97.93
2023-03-10T01:02:23.169Z,97.55
2023-03-10T01:04:52.454Z,97.64
2023-03-10T01:07:21.752Z,97.98
2023-03-10T01:09:51.065Z,97.98
2023-03-10T01:12:20.355Z,98.97
2023-03-10T01:14:49.641Z,99.35
2023-03-10T01:17:18.887Z,99.05
2023-03-10T01:19:50.813Z,99.01
2023-03-10T01:22:20.190Z,98.97
2023-03-10T01:24:49.461Z,99.65
2023-03-10T01:27:20.703Z,98.91
2023-03-10T01:29:50.010Z,98.73
2023-03-10T01:32:19.287Z,98.63
2023-03-10T01:34:51.238Z,98.39
2023-03-10T01:37:21.197Z,99.07
2023-03-10T01:39:50.482Z,99.27
2023-03-10T01:42:19.756Z,100.00
2023-03-10T01:45:07.676Z,100.00
2023-03-10T01:47:36.953Z,100.00
2023-03-10T01:50:14.610Z,100.00
2023-03-10T01:52:46.715Z,100.00
2023-03-10T01:55:19.567Z,100.00
2023-03-10T01:57:52.625Z,100.00
2023-03-10T02:00:23.326Z,100.00
2023-03-10T02:02:57.579Z,100.00
2023-03-10T02:05:31.038Z,100.00
2023-03-10T02:08:02.270Z,100.00
2023-03-10T02:10:32.546Z,100.00
2023-03-10T02:13:01.811Z,100.00
2023-03-10T02:15:31.919Z,100.00
2023-03-10T02:18:02.173Z,100.00
2023-03-10T02:20:43.164Z,100.00
2023-03-10T02:23:15.225Z,100.00
2023-03-10T02:25:50.173Z,100.00
2023-03-10T02:28:22.237Z,100.00
2023-03-10T02:30:55.063Z,100.00
2023-03-10T02:33:28.344Z,100.00
2023-03-10T02:36:04.239Z,100.00
2023-03-10T02:38:33.579Z,100.00
2023-03-10T02:41:05.117Z,100.00
2023-03-10T02:43:37.564Z,100.00
2023-03-10T02:46:08.428Z,100.00
2023-03-10T02:48:40.143Z,100.00
2023-03-10T02:51:13.739Z,100.00
2023-03-10T02:53:43.039Z,100.00
2023-03-10T02:56:12.851Z,100.00
2023-03-10T02:58:44.882Z,100.00
2023-03-10T03:01:14.277Z,100.00
2023-03-10T03:03:43.839Z,100.00
2023-03-10T03:06:14.396Z,100.00
2023-03-10T03:08:44.254Z,100.00
2023-03-10T03:11:13.622Z,100.00
2023-03-10T03:13:45.939Z,100.00
2023-03-10T03:16:15.292Z,100.00
2023-03-10T03:18:44.596Z,100.00
2023-03-10T03:21:17.316Z,100.00
2023-03-10T03:23:47.825Z,100.00
2023-03-10T03:26:20.142Z,100.00
2023-03-10T03:28:52.330Z,100.00
2023-03-10T03:31:24.179Z,100.00
2023-03-10T03:33:53.826Z,100.00
2023-03-10T03:36:23.249Z,100.00
2023-03-10T03:38:52.567Z,100.00
2023-03-10T03:41:21.864Z,100.00
2023-03-10T03:43:53.778Z,100.00
2023-03-10T03:46:23.143Z,100.00
2023-03-10T03:48:52.465Z,100.00
2023-03-10T03:51:21.742Z,100.00
2023-03-10T03:53:51.091Z,100.00
2023-03-10T03:56:20.450Z,100.00
2023-03-10T03:58:49.782Z,100.00
2023-03-10T04:01:21.612Z,100.00
2023-03-10T04:03:50.980Z,100.00
2023-03-10T04:06:20.244Z,100.00
2023-03-10T04:08:51.942Z,100.00
2023-03-10T04:11:21.671Z,100.00
2023-03-10T04:13:50.910Z,100.00
2023-03-10T04:16:22.822Z,100.00
2023-03-10T04:18:52.171Z,100.00
2023-03-10T04:21:21.550Z,100.00
2023-03-10T04:23:50.826Z,100.00
2023-03-10T04:26:20.143Z,100.00
2023-03-10T04:28:49.535Z,100.00
2023-03-10T04:31:23.179Z,100.00
2023-03-10T04:33:52.894Z,100.00
2023-03-10T04:36:23.435Z,100.00
2023-03-10T04:38:53.102Z,100.00
2023-03-10T04:41:22.423Z,100.00
2023-03-10T04:43:51.758Z,100.00
2023-03-10T04:46:23.789Z,100.00
2023-03-10T04:48:53.130Z,100.00
2023-03-10T04:51:22.440Z,100.00
2023-03-10T04:53:51.838Z,100.00
2023-03-10T04:56:21.714Z,100.00
2023-03-10T04:58:50.972Z,100.00
2023-03-10T05:01:22.835Z,100.00
2023-03-10T05:03:52.227Z,100.00
2023-03-10T05:06:24.147Z,100.00
2023-03-10T05:08:53.388Z,100.00
2023-03-10T05:11:23.959Z,100.00
2023-03-10T05:13:53.368Z,100.00
2023-03-10T05:16:26.292Z,100.00
2023-03-10T05:18:55.632Z,100.00
2023-03-10T05:21:24.892Z,100.00
2023-03-10T05:23:54.181Z,100.00
2023-03-10T05:26:23.447Z,100.00
2023-03-10T05:28:52.763Z,100.00
2023-03-10T05:31:26.391Z,100.00
2023-03-10T05:33:56.126Z,100.00
2023-03-10T05:36:26.032Z,100.00
2023-03-10T05:38:55.338Z,100.00
2023-03-10T05:41:24.710Z,100.00
2023-03-10T05:43:54.022Z,100.00
2023-03-10T05:46:26.844Z,100.00
2023-03-10T05:48:56.306Z,100.00
2023-03-10T05:51:26.120Z,100.00
2023-03-10T05:53:55.358Z,100.00
2023-03-10T05:56:25.068Z,100.00
2023-03-10T05:58:54.327Z,100.00
2023-03-10T06:01:26.553Z,100.00
2023-03-10T06:03:55.856Z,100.00
2023-03-10T06:06:25.129Z,100.00
2023-03-10T06:08:54.487Z,100.00
2023-03-10T06:11:24.062Z,100.00
2023-03-10T06:13:53.469Z,100.00
2023-03-10T06:16:22.766Z,100.00
2023-03-10T06:18:58.665Z,100.00
2023-03-10T06:21:29.444Z,100.00
2023-03-10T06:23:59.277Z,100.00
2023-03-10T06:26:28.557Z,100.00
2023-03-10T06:28:57.759Z,100.00
2023-03-10T06:31:27.270Z,100.00
2023-03-10T06:33:59.393Z,100.00
2023-03-10T06:36:31.869Z,100.00
2023-03-10T06:39:01.329Z,100.00
2023-03-10T06:41:30.633Z,100.00
2023-03-10T06:43:59.923Z,100.00
2023-03-10T06:46:29.212Z,100.00
2023-03-10T06:49:01.043Z,100.00
2023-03-10T06:51:30.489Z,100.00
2023-03-10T06:53:59.973Z,100.00
2023-03-10T06:56:29.238Z,100.00
2023-03-10T06:58:58.480Z,100.00
2023-03-10T07:01:36.329Z,100.00
2023-03-10T07:04:08.282Z,100.00
2023-03-10T07:06:37.491Z,100.00
2023-03-10T07:09:11.252Z,100.00
2023-03-10T07:11:40.479Z,100.00
2023-03-10T07:14:10.039Z,100.00
2023-03-10T07:16:42.102Z,100.00
2023-03-10T07:19:14.451Z,100.00
2023-03-10T07:21:43.724Z,100.00
2023-03-10T07:24:13.179Z,100.00
2023-03-10T07:26:42.682Z,100.00
2023-03-10T07:29:12.035Z,100.00
2023-03-10T07:31:41.355Z,100.00
2023-03-10T07:34:10.578Z,100.00
2023-03-10T07:36:42.480Z,100.00
2023-03-10T07:39:11.925Z,100.00
2023-03-10T07:41:41.157Z,100.00
2023-03-10T07:44:10.535Z,100.00
2023-03-10T07:46:39.839Z,100.00
2023-03-10T07:49:09.063Z,100.00
2023-03-10T07:51:38.310Z,100.00
2023-03-10T07:54:10.123Z,100.00
2023-03-10T07:56:39.410Z,100.00
2023-03-10T07:59:08.640Z,100.00
2023-03-10T08:01:37.944Z,100.00
2023-03-10T08:04:08.195Z,100.00
2023-03-10T08:06:38.165Z,100.00
2023-03-10T08:09:10.002Z,100.00
2023-03-10T08:11:39.362Z,100.00
2023-03-10T08:14:08.613Z,100.00
2023-03-10T08:16:38.186Z,100.00
2023-03-10T08:19:07.682Z,100.00
2023-03-10T08:21:36.898Z,100.00
2023-03-10T08:24:06.599Z,100.00
2023-03-10T08:26:38.593Z,100.00
2023-03-10T08:29:07.937Z,100.00
2023-03-10T08:31:37.559Z,100.00
2023-03-10T08:34:06.835Z,100.00
2023-03-10T08:36:36.455Z,100.00
2023-03-10T08:39:06.505Z,100.00
2023-03-10T08:41:41.950Z,100.00
2023-03-10T08:44:15.177Z,100.00
2023-03-10T08:46:46.781Z,100.00
2023-03-10T08:49:16.418Z,100.00
2023-03-10T08:51:45.903Z,100.00
2023-03-10T08:54:18.258Z,100.00
2023-03-10T08:56:50.142Z,100.00
2023-03-10T08:59:19.612Z,100.00
2023-03-10T09:01:49.579Z,100.00
2023-03-10T09:04:18.907Z,100.00
2023-03-10T09:06:48.138Z,100.00
2023-03-10T09:09:17.421Z,100.00
2023-03-10T09:11:50.446Z,100.00
2023-03-10T09:14:20.221Z,100.00
2023-03-10T09:16:49.731Z,100.00
2023-03-10T09:19:19.100Z,100.00
2023-03-10T09:21:48.509Z,100.00
2023-03-10T09:24:18.097Z,100.00
2023-03-10T09:26:49.951Z,100.00
2023-03-10T09:29:20.365Z,100.00
2023-03-10T09:31:52.280Z,100.00
2023-03-10T09:34:21.563Z,100.00
2023-03-10T09:36:50.782Z,100.00
2023-03-10T09:39:19.985Z,100.00
2023-03-10T09:42:36.502Z,100.00
2023-03-10T09:45:22.706Z,100.00
2023-03-10T09:48:03.844Z,100.00
2023-03-10T09:50:38.954Z,100.00
2023-03-10T09:53:18.950Z,100.00
2023-03-10T09:55:49.103Z,100.00
2023-03-10T09:58:29.549Z,100.00
2023-03-10T10:00:59.283Z,100.00
2023-03-10T10:03:46.374Z,100.00
2023-03-10T10:06:21.967Z,100.00
2023-03-10T10:09:04.340Z,100.00
2023-03-10T10:11:34.531Z,100.00
2023-03-10T10:14:27.841Z,100.00
2023-03-10T10:17:04.248Z,100.00
2023-03-10T10:19:36.974Z,100.00
2023-03-10T10:22:12.904Z,100.00
2023-03-10T10:24:42.306Z,100.00
2023-03-10T10:27:11.539Z,100.00
2023-03-10T10:29:47.011Z,100.00
2023-03-10T10:32:18.338Z,100.00
2023-03-10T10:34:49.286Z,100.00
2023-03-10T10:37:26.902Z,100.00
2023-03-10T10:39:58.457Z,100.00
2023-03-10T10:42:29.684Z,100.00
2023-03-10T10:45:04.002Z,100.00
2023-03-10T10:47:35.094Z,100.00
2023-03-10T10:50:21.083Z,100.00
2023-03-10T10:52:53.178Z,100.00
2023-03-10T10:55:29.924Z,100.00
2023-03-10T10:58:02.160Z,100.00
2023-03-10T11:00:38.213Z,100.00
2023-03-10T11:03:21.901Z,100.00
2023-03-10T11:05:51.107Z,100.00
2023-03-10T11:08:26.070Z,100.00
2023-03-10T11:11:03.224Z,100.00
2023-03-10T11:13:40.174Z,100.00
2023-03-10T11:16:18.917Z,100.00
2023-03-10T11:18:55.212Z,100.00
2023-03-10T11:21:28.640Z,100.00
2023-03-10T11:24:06.770Z,100.00
2023-03-10T11:26:49.677Z,100.00
2023-03-10T11:29:30.704Z,100.00
2023-03-10T11:32:09.926Z,100.00
2023-03-10T11:34:44.652Z,100.00
2023-03-10T11:37:24.527Z,100.00
2023-03-10T11:40:07.888Z,100.00
2023-03-10T11:42:41.626Z,100.00
2023-03-10T11:45:27.015Z,100.00
2023-03-10T11:48:10.269Z,100.00
2023-03-10T11:50:48.397Z,100.00
2023-03-10T11:53:24.518Z,100.00
2023-03-10T11:55:55.228Z,100.00
2023-03-10T11:58:30.558Z,100.00
2023-03-10T12:01:01.142Z,100.00
2023-03-10T12:03:44.870Z,100.00
2023-03-10T12:06:20.094Z,100.00
2023-03-10T12:08:52.339Z,100.00
2023-03-10T12:11:25.221Z,100.00
2023-03-10T12:13:59.316Z,100.00
2023-03-10T12:16:31.775Z,100.00
2023-03-10T12:19:04.110Z,100.00
2023-03-10T12:21:34.740Z,100.00
2023-03-10T12:24:06.479Z,100.00
2023-03-10T12:27:02.407Z,100.00
2023-03-10T12:29:37.721Z,100.00
2023-03-10T12:32:07.886Z,100.00
2023-03-10T12:34:39.749Z,100.00
2023-03-10T12:37:11.026Z,100.00
2023-03-10T12:39:42.869Z,100.00
2023-03-10T12:42:31.434Z,100.00
2023-03-10T12:45:10.958Z,100.00
2023-03-10T12:47:51.946Z,100.00
2023-03-10T12:50:32.738Z,100.00
2023-03-10T12:53:08.191Z,100.00
2023-03-10T12:55:44.406Z,100.00
2023-03-10T12:58:21.125Z,100.00
2023-03-10T13:00:53.164Z,100.00
2023-03-10T13:03:29.703Z,100.00
2023-03-10T13:06:09.436Z,100.00
2023-03-10T13:08:49.209Z,100.00
2023-03-10T13:11:35.986Z,100.00
2023-03-10T13:14:07.251Z,100.00
2023-03-10T13:16:36.653Z,100.00
2023-03-10T13:19:06.497Z,100.00
2023-03-10T13:21:40.517Z,100.00
2023-03-10T13:24:26.106Z,100.00
2023-03-10T13:27:06.248Z,100.00
2023-03-10T13:29:35.918Z,100.00
2023-03-10T13:32:05.567Z,100.00
2023-03-10T13:34:36.826Z,100.00
2023-03-10T13:37:10.817Z,100.00
2023-03-10T13:39:40.497Z,100.00
2023-03-10T13:42:28.300Z,100.00
2023-03-10T13:45:00.346Z,100.00
2023-03-10T13:47:31.922Z,100.00
2023-03-10T13:50:04.099Z,100.00
2023-03-10T13:52:35.968Z,100.00
2023-03-10T13:55:15.513Z,100.00
2023-03-10T13:57:46.401Z,100.00
2023-03-10T14:00:19.124Z,100.00
2023-03-10T14:02:50.331Z,100.00
2023-03-10T14:05:41.610Z,100.00
2023-03-10T14:08:22.823Z,100.00
2023-03-10T14:10:52.135Z,100.00
2023-03-10T14:13:46.285Z,100.00
2023-03-10T14:16:15.952Z,100.00
2023-03-10T14:18:46.108Z,100.00
2023-03-10T14:21:34.086Z,100.00
2023-03-10T14:24:13.810Z,100.00
2023-03-10T14:26:43.625Z,100.00
2023-03-10T14:29:18.022Z,100.00
2023-03-10T14:31:52.887Z,100.00
2023-03-10T14:34:22.145Z,100.00
2023-03-10T14:36:51.371Z,100.00
2023-03-10T14:39:23.175Z,100.00
2023-03-10T14:41:53.569Z,100.00
2023-03-10T14:44:22.897Z,100.00
2023-03-10T14:46:53.421Z,100.00
2023-03-10T14:49:26.053Z,100.00
2023-03-10T14:51:55.469Z,100.00
2023-03-10T14:54:27.689Z,100.00
2023-03-10T14:56:59.766Z,100.00
2023-03-10T14:59:31.083Z,100.00
2023-03-10T15:02:06.819Z,100.00
2023-03-10T15:04:36.347Z,100.00
2023-03-10T15:07:05.807Z,100.00
2023-03-10T15:09:38.059Z,100.00
2023-03-10T15:12:08.043Z,100.00
2023-03-10T15:14:37.569Z,100.00
2023-03-10T15:17:07.254Z,100.00
2023-03-10T15:19:36.541Z,100.00
2023-03-10T15:22:06.020Z,100.00
2023-03-10T15:24:37.962Z,100.00
2023-03-10T15:27:07.452Z,100.00
2023-03-10T15:29:36.721Z,100.00
2023-03-10T15:32:06.527Z,100.00
2023-03-10T15:34:35.824Z,100.00
2023-03-10T15:37:07.417Z,100.00
2023-03-10T15:39:39.252Z,100.00
2023-03-10T15:42:08.810Z,100.00
2023-03-10T15:44:38.712Z,100.00
2023-03-10T15:47:08.495Z,100.00
2023-03-10T15:49:41.488Z,100.00
2023-03-10T15:52:10.787Z,100.00
2023-03-10T15:54:42.833Z,100.00
2023-03-10T15:57:12.108Z,100.00
2023-03-10T15:59:41.519Z,100.00
2023-03-10T16:02:14.745Z,100.00
2023-03-10T16:04:44.808Z,100.00
2023-03-10T16:07:14.721Z,100.00
2023-03-10T16:09:47.455Z,100.00
2023-03-10T16:12:16.711Z,100.00
2023-03-10T16:14:45.956Z,100.00
2023-03-10T16:17:15.568Z,100.00
2023-03-10T16:19:44.823Z,100.00
2023-03-10T16:22:14.122Z,100.00
2023-03-10T16:24:46.513Z,100.00
2023-03-10T16:27:16.105Z,100.00
2023-03-10T16:29:45.378Z,100.00
2023-03-10T16:32:15.098Z,100.00
2023-03-10T16:34:44.452Z,100.00
2023-03-10T16:37:13.808Z,100.00
2023-03-10T16:39:45.689Z,100.00
2023-03-10T16:42:14.908Z,100.00
2023-03-10T16:44:44.170Z,100.00
2023-03-10T16:47:13.488Z,100.00
2023-03-10T16:49:42.708Z,100.00
2023-03-10T16:52:12.002Z,100.00
2023-03-10T16:54:41.387Z,100.00
2023-03-10T16:57:13.214Z,100.00
2023-03-10T16:59:44.715Z,100.00
2023-03-10T17:02:16.955Z,100.00
2023-03-10T17:04:46.932Z,100.00
2023-03-10T17:07:16.218Z,100.00
2023-03-10T17:09:45.767Z,100.00
2023-03-10T17:12:18.340Z,100.00
2023-03-10T17:14:47.587Z,100.00
2023-03-10T17:17:16.811Z,100.00
2023-03-10T17:19:46.222Z,100.00
2023-03-10T17:22:15.511Z,100.00
2023-03-10T17:24:44.740Z,100.00
2023-03-10T17:27:16.595Z,100.00
2023-03-10T17:29:45.875Z,100.00
2023-03-10T17:32:15.275Z,100.00
2023-03-10T17:34:45.892Z,100.00
2023-03-10T17:37:15.117Z,100.00
2023-03-10T17:39:44.370Z,100.00
2023-03-10T17:42:14.899Z,100.00
2023-03-10T17:44:46.782Z,100.00
2023-03-10T17:47:16.279Z,100.00
2023-03-10T17:49:45.519Z,100.00
2023-03-10T17:52:14.807Z,100.00
2023-03-10T17:54:44.207Z,100.00
2023-03-10T17:57:13.474Z,100.00
2023-03-10T17:59:43.260Z,100.00
2023-03-10T18:02:15.785Z,100.00
2023-03-10T18:04:46.650Z,100.00
2023-03-10T18:07:16.059Z,100.00
2023-03-10T18:09:45.318Z,100.00
2023-03-10T18:12:14.563Z,100.00
2023-03-10T18:14:43.837Z,100.00
2023-03-10T18:17:15.682Z,100.00
2023-03-10T18:19:44.982Z,100.00
2023-03-10T18:22:14.436Z,100.00
2023-03-10T18:24:43.695Z,100.00
2023-03-10T18:27:12.994Z,100.00
2023-03-10T18:29:42.317Z,100.00
2023-03-10T18:32:11.812Z,100.00
2023-03-10T18:34:43.692Z,100.00
2023-03-10T18:37:13.066Z,100.00
2023-03-10T18:39:42.335Z,100.00
2023-03-10T18:42:11.592Z,100.00
2023-03-10T18:44:41.393Z,100.00
2023-03-10T18:47:10.713Z,100.00
2023-03-10T18:49:39.950Z,100.00
2023-03-10T18:52:15.851Z,100.00
2023-03-10T18:54:45.173Z,100.00
2023-03-10T18:57:15.064Z,100.00
2023-03-10T18:59:44.574Z,100.00
2023-03-10T19:02:16.655Z,100.00
2023-03-10T19:04:47.944Z,100.00
2023-03-10T19:07:22.242Z,100.00
2023-03-10T19:09:55.738Z,100.00
2023-03-10T19:12:25.047Z,100.00
2023-03-10T19:14:56.101Z,100.00
2023-03-10T19:17:26.588Z,100.00
2023-03-10T19:19:56.135Z,100.00
2023-03-10T19:22:28.598Z,100.00
2023-03-10T19:24:58.045Z,100.00
2023-03-10T19:27:27.417Z,100.00
2023-03-10T19:29:56.739Z,100.00
2023-03-10T19:32:26.109Z,100.00
2023-03-10T19:34:55.499Z,100.00
2023-03-10T19:37:24.758Z,100.00
2023-03-10T19:39:56.592Z,100.00
2023-03-10T19:42:26.434Z,100.00
2023-03-10T19:44:55.667Z,100.00
2023-03-10T19:47:24.914Z,100.00
2023-03-10T19:49:54.182Z,100.00
2023-03-10T19:52:23.862Z,100.00
2023-03-10T19:54:55.761Z,100.00
2023-03-10T19:57:24.972Z,100.00
2023-03-10T19:59:54.236Z,100.00
2023-03-10T20:02:24.682Z,100.00
2023-03-10T20:04:54.042Z,100.00
2023-03-10T20:07:23.307Z,100.00
2023-03-10T20:09:52.567Z,100.00
2023-03-10T20:12:24.487Z,100.00
2023-03-10T20:14:58.746Z,100.00
2023-03-10T20:17:28.107Z,100.00
2023-03-10T20:19:57.660Z,100.00
2023-03-10T20:22:27.037Z,100.00
2023-03-10T20:24:56.352Z,100.00
2023-03-10T20:27:28.579Z,100.00
2023-03-10T20:29:57.840Z,100.00
2023-03-10T20:32:27.174Z,100.00
2023-03-10T20:34:56.543Z,100.00
2023-03-10T20:37:25.767Z,100.00
2023-03-10T20:39:55.587Z,100.00
2023-03-10T20:42:24.948Z,100.00
2023-03-10T20:44:56.984Z,100.00
2023-03-10T20:47:26.675Z,100.00
2023-03-10T20:49:55.974Z,100.00
2023-03-10T20:52:25.619Z,100.00
2023-03-10T20:54:56.058Z,100.00
2023-03-10T20:57:25.329Z,100.00
2023-03-10T20:59:58.204Z,100.00
2023-03-10T21:02:27.462Z,100.00
2023-03-10T21:04:57.960Z,100.00
2023-03-10T21:07:27.243Z,100.00
2023-03-10T21:09:58.036Z,100.00
2023-03-10T21:12:27.356Z,100.00
2023-03-10T21:14:59.555Z,100.00
2023-03-10T21:17:29.699Z,100.00
2023-03-10T21:19:59.096Z,100.00
2023-03-10T21:22:30.473Z,100.00
2023-03-10T21:25:00.286Z,100.00
2023-03-10T21:27:30.944Z,100.00
2023-03-10T21:30:04.553Z,100.00
2023-03-10T21:32:33.880Z,100.00
2023-03-10T21:35:04.363Z,100.00
2023-03-10T21:37:35.762Z,100.00
2023-03-10T21:40:09.758Z,100.00
2023-03-10T21:42:39.167Z,100.00
2023-03-10T21:45:14.313Z,100.00
2023-03-10T21:47:43.598Z,100.00
2023-03-10T21:50:14.592Z,100.00
2023-03-10T21:52:44.704Z,100.00
2023-03-10T21:55:20.239Z,100.00
2023-03-10T21:57:50.604Z,100.00
2023-03-10T22:00:25.808Z,100.00
2023-03-10T22:02:55.896Z,100.00
2023-03-10T22:05:25.626Z,100.00
2023-03-10T22:07:56.047Z,100.00
2023-03-10T22:10:25.354Z,100.00
2023-03-10T22:12:54.819Z,100.00
2023-03-10T22:15:29.212Z,100.00
2023-03-10T22:17:59.608Z,100.00
2023-03-10T22:20:30.623Z,100.00
2023-03-10T22:22:59.883Z,100.00
2023-03-10T22:25:29.402Z,100.00
2023-03-10T22:27:59.912Z,100.00
2023-03-10T22:30:32.495Z,100.00
2023-03-10T22:33:04.630Z,100.00
2023-03-10T22:35:33.880Z,100.00
2023-03-10T22:38:03.214Z,100.00
2023-03-10T22:40:32.819Z,100.00
2023-03-10T22:43:02.126Z,100.00
2023-03-10T22:45:35.468Z,100.00
2023-03-10T22:48:08.562Z,100.00
2023-03-10T22:50:40.509Z,100.00
2023-03-10T22:53:14.935Z,100.00
2023-03-10T22:55:46.449Z,100.00
2023-03-10T22:58:16.267Z,100.00
2023-03-10T23:00:48.529Z,100.00
2023-03-10T23:03:17.842Z,100.00
2023-03-10T23:05:47.748Z,100.00
2023-03-10T23:08:17.005Z,100.00
2023-03-10T23:10:46.903Z,100.00
2023-03-10T23:13:18.341Z,100.00
2023-03-10T23:15:50.218Z,100.00
2023-03-10T23:18:19.744Z,100.00
2023-03-10T23:20:52.975Z,100.00
2023-03-10T23:23:22.274Z,100.00
2023-03-10T23:25:53.036Z,100.00
2023-03-10T23:28:23.656Z,100.00
2023-03-10T23:30:55.622Z,100.00
2023-03-10T23:33:26.570Z,100.00
2023-03-10T23:35:56.347Z,100.00
2023-03-10T23:38:27.693Z,100.00
2023-03-10T23:40:58.091Z,100.00
2023-03-10T23:43:27.672Z,100.00
2023-03-10T23:45:59.865Z,100.00
2023-03-10T23:48:29.666Z,100.00
2023-03-10T23:50:59.076Z,100.00
2023-03-10T23:53:29.057Z,100.00
2023-03-10T23:56:00.352Z,100.00
2023-03-10T23:58:31.690Z,100.00
